sensor_id;sensor_type;location;lat;lon;timestamp;pressure;altitude;pressure_sealevel;temperature;humidity
77118;BME280;66072;50.238;19.228;2023-06-22T00:01:01;98681.41;;;19.75;80.04
77118;BME280;66072;50.238;19.228;2023-06-22T00:03:31;98680.28;;;19.74;79.73
77118;BME280;66072;50.238;19.228;2023-06-22T00:05:59;98677.85;;;19.72;79.37
77118;BME280;66072;50.238;19.228;2023-06-22T00:08:26;98668.94;;;19.71;79.58
77118;BME280;66072;50.238;19.228;2023-06-22T00:10:54;98667.91;;;19.68;79.87
77118;BME280;66072;50.238;19.228;2023-06-22T00:13:22;98672.88;;;19.67;79.97
77118;BME280;66072;50.238;19.228;2023-06-22T00:15:49;98680.17;;;19.67;80.20
77118;BME280;66072;50.238;19.228;2023-06-22T00:18:17;98687.32;;;19.67;80.00
77118;BME280;66072;50.238;19.228;2023-06-22T00:20:44;98682.28;;;19.64;79.72
77118;BME280;66072;50.238;19.228;2023-06-22T00:23:12;98684.70;;;19.63;80.01
77118;BME280;66072;50.238;19.228;2023-06-22T00:25:40;98686.11;;;19.60;80.52
77118;BME280;66072;50.238;19.228;2023-06-22T00:28:08;98694.39;;;19.58;80.69
77118;BME280;66072;50.238;19.228;2023-06-22T00:30:36;98695.98;;;19.57;80.59
77118;BME280;66072;50.238;19.228;2023-06-22T00:33:03;98692.06;;;19.57;80.71
77118;BME280;66072;50.238;19.228;2023-06-22T00:35:31;98688.19;;;19.55;80.89
77118;BME280;66072;50.238;19.228;2023-06-22T00:38:00;98694.45;;;19.53;80.74
77118;BME280;66072;50.238;19.228;2023-06-22T00:40:28;98698.02;;;19.49;80.55
77118;BME280;66072;50.238;19.228;2023-06-22T00:42:57;98701.83;;;19.45;80.94
77118;BME280;66072;50.238;19.228;2023-06-22T00:45:25;98702.22;;;19.43;81.05
77118;BME280;66072;50.238;19.228;2023-06-22T00:47:58;98696.79;;;19.41;81.26
77118;BME280;66072;50.238;19.228;2023-06-22T00:50:27;98691.85;;;19.40;81.20
77118;BME280;66072;50.238;19.228;2023-06-22T00:52:58;98686.81;;;19.40;81.18
77118;BME280;66072;50.238;19.228;2023-06-22T00:55:26;98687.89;;;19.39;81.18
77118;BME280;66072;50.238;19.228;2023-06-22T00:57:54;98687.32;;;19.38;81.42
77118;BME280;66072;50.238;19.228;2023-06-22T01:00:23;98685.11;;;19.40;81.24
77118;BME280;66072;50.238;19.228;2023-06-22T01:02:52;98680.05;;;19.40;80.91
77118;BME280;66072;50.238;19.228;2023-06-22T01:05:21;98676.21;;;19.40;80.51
77118;BME280;66072;50.238;19.228;2023-06-22T01:08:10;98673.16;;;19.40;80.53
77118;BME280;66072;50.238;19.228;2023-06-22T01:13:40;98674.77;;;19.37;80.59
77118;BME280;66072;50.238;19.228;2023-06-22T01:16:15;98682.48;;;19.36;80.56
77118;BME280;66072;50.238;19.228;2023-06-22T01:18:45;98688.48;;;19.34;80.79
77118;BME280;66072;50.238;19.228;2023-06-22T01:21:17;98681.84;;;19.32;80.67
77118;BME280;66072;50.238;19.228;2023-06-22T01:26:40;98678.38;;;19.26;80.68
77118;BME280;66072;50.238;19.228;2023-06-22T01:29:11;98678.86;;;19.22;80.82
77118;BME280;66072;50.238;19.228;2023-06-22T01:31:40;98680.85;;;19.18;80.87
77118;BME280;66072;50.238;19.228;2023-06-22T01:34:09;98673.20;;;19.14;80.91
77118;BME280;66072;50.238;19.228;2023-06-22T01:36:38;98670.84;;;19.09;81.07
77118;BME280;66072;50.238;19.228;2023-06-22T01:39:07;98672.02;;;19.05;81.14
77118;BME280;66072;50.238;19.228;2023-06-22T01:41:37;98682.16;;;19.02;80.95
77118;BME280;66072;50.238;19.228;2023-06-22T01:44:06;98686.87;;;18.99;81.01
77118;BME280;66072;50.238;19.228;2023-06-22T01:46:35;98692.08;;;18.97;80.98
77118;BME280;66072;50.238;19.228;2023-06-22T01:49:04;98695.77;;;18.94;81.45
77118;BME280;66072;50.238;19.228;2023-06-22T01:51:32;98694.10;;;18.91;81.41
77118;BME280;66072;50.238;19.228;2023-06-22T01:54:01;98696.39;;;18.88;81.55
77118;BME280;66072;50.238;19.228;2023-06-22T01:56:29;98692.12;;;18.85;81.50
77118;BME280;66072;50.238;19.228;2023-06-22T01:59:07;98687.17;;;18.82;81.58
77118;BME280;66072;50.238;19.228;2023-06-22T02:01:47;98688.96;;;18.79;81.60
77118;BME280;66072;50.238;19.228;2023-06-22T02:04:25;98693.36;;;18.76;81.64
77118;BME280;66072;50.238;19.228;2023-06-22T02:06:58;98692.84;;;18.71;81.98
77118;BME280;66072;50.238;19.228;2023-06-22T02:09:29;98690.73;;;18.67;82.03
77118;BME280;66072;50.238;19.228;2023-06-22T02:11:59;98689.39;;;18.64;82.02
77118;BME280;66072;50.238;19.228;2023-06-22T02:14:28;98695.38;;;18.60;82.30
77118;BME280;66072;50.238;19.228;2023-06-22T02:16:57;98695.46;;;18.57;82.58
77118;BME280;66072;50.238;19.228;2023-06-22T02:19:24;98692.45;;;18.53;82.73
77118;BME280;66072;50.238;19.228;2023-06-22T02:21:52;98694.65;;;18.49;82.88
77118;BME280;66072;50.238;19.228;2023-06-22T02:24:20;98695.95;;;18.45;82.97
77118;BME280;66072;50.238;19.228;2023-06-22T02:26:47;98698.91;;;18.43;82.92
77118;BME280;66072;50.238;19.228;2023-06-22T02:29:15;98698.34;;;18.42;83.05
77118;BME280;66072;50.238;19.228;2023-06-22T02:31:43;98693.15;;;18.39;83.33
77118;BME280;66072;50.238;19.228;2023-06-22T02:34:10;98695.09;;;18.36;83.77
77118;BME280;66072;50.238;19.228;2023-06-22T02:36:38;98704.66;;;18.34;83.73
77118;BME280;66072;50.238;19.228;2023-06-22T02:39:06;98707.95;;;18.31;83.79
77118;BME280;66072;50.238;19.228;2023-06-22T02:41:33;98713.85;;;18.29;83.85
77118;BME280;66072;50.238;19.228;2023-06-22T02:44:01;98713.48;;;18.27;83.92
77118;BME280;66072;50.238;19.228;2023-06-22T02:46:28;98714.64;;;18.25;84.22
77118;BME280;66072;50.238;19.228;2023-06-22T02:48:56;98713.21;;;18.23;84.10
77118;BME280;66072;50.238;19.228;2023-06-22T02:51:24;98707.79;;;18.22;84.37
77118;BME280;66072;50.238;19.228;2023-06-22T02:53:51;98710.44;;;18.19;84.39
77118;BME280;66072;50.238;19.228;2023-06-22T02:56:19;98713.84;;;18.17;84.57
77118;BME280;66072;50.238;19.228;2023-06-22T02:58:47;98719.11;;;18.16;84.88
77118;BME280;66072;50.238;19.228;2023-06-22T03:01:14;98726.21;;;18.16;85.55
77118;BME280;66072;50.238;19.228;2023-06-22T03:03:42;98729.47;;;18.17;85.27
77118;BME280;66072;50.238;19.228;2023-06-22T03:06:10;98733.01;;;18.18;85.49
77118;BME280;66072;50.238;19.228;2023-06-22T03:08:37;98734.73;;;18.20;85.66
77118;BME280;66072;50.238;19.228;2023-06-22T03:11:05;98745.88;;;18.24;85.41
77118;BME280;66072;50.238;19.228;2023-06-22T03:13:33;98746.27;;;18.29;85.39
77118;BME280;66072;50.238;19.228;2023-06-22T03:16:00;98751.90;;;18.34;85.24
77118;BME280;66072;50.238;19.228;2023-06-22T03:18:28;98758.89;;;18.40;85.09
77118;BME280;66072;50.238;19.228;2023-06-22T03:20:55;98760.38;;;18.46;84.89
77118;BME280;66072;50.238;19.228;2023-06-22T03:23:23;98759.34;;;18.53;84.59
77118;BME280;66072;50.238;19.228;2023-06-22T03:25:51;98758.67;;;18.60;84.45
77118;BME280;66072;50.238;19.228;2023-06-22T03:28:18;98761.77;;;18.65;84.30
77118;BME280;66072;50.238;19.228;2023-06-22T03:30:46;98763.05;;;18.71;84.28
77118;BME280;66072;50.238;19.228;2023-06-22T03:33:15;98764.64;;;18.77;84.02
77118;BME280;66072;50.238;19.228;2023-06-22T03:35:42;98756.76;;;18.83;83.89
77118;BME280;66072;50.238;19.228;2023-06-22T03:38:10;98753.53;;;18.89;83.71
77118;BME280;66072;50.238;19.228;2023-06-22T03:40:37;98759.65;;;18.95;83.42
77118;BME280;66072;50.238;19.228;2023-06-22T03:43:07;98761.84;;;19.03;83.23
77118;BME280;66072;50.238;19.228;2023-06-22T03:45:35;98768.35;;;19.11;83.15
77118;BME280;66072;50.238;19.228;2023-06-22T03:48:03;98777.67;;;19.18;83.07
77118;BME280;66072;50.238;19.228;2023-06-22T03:50:30;98775.02;;;19.25;82.92
77118;BME280;66072;50.238;19.228;2023-06-22T03:52:58;98774.50;;;19.32;82.60
77118;BME280;66072;50.238;19.228;2023-06-22T03:55:26;98771.23;;;19.36;82.30
77118;BME280;66072;50.238;19.228;2023-06-22T03:57:54;98769.09;;;19.39;82.12
77118;BME280;66072;50.238;19.228;2023-06-22T04:00:23;98765.52;;;19.41;82.11
77118;BME280;66072;50.238;19.228;2023-06-22T04:02:50;98762.05;;;19.43;81.98
77118;BME280;66072;50.238;19.228;2023-06-22T04:05:18;98761.40;;;19.47;81.83
77118;BME280;66072;50.238;19.228;2023-06-22T04:07:46;98762.66;;;19.50;81.78
77118;BME280;66072;50.238;19.228;2023-06-22T04:10:14;98765.83;;;19.56;81.61
77118;BME280;66072;50.238;19.228;2023-06-22T04:12:44;98769.92;;;19.65;81.92
77118;BME280;66072;50.238;19.228;2023-06-22T04:15:12;98767.42;;;19.72;81.60
77118;BME280;66072;50.238;19.228;2023-06-22T04:17:40;98770.03;;;19.81;81.30
77118;BME280;66072;50.238;19.228;2023-06-22T04:20:08;98773.62;;;19.88;80.67
77118;BME280;66072;50.238;19.228;2023-06-22T04:22:35;98772.08;;;19.90;80.52
77118;BME280;66072;50.238;19.228;2023-06-22T04:25:06;98777.36;;;19.93;80.35
77118;BME280;66072;50.238;19.228;2023-06-22T04:27:34;98782.34;;;20.00;80.16
77118;BME280;66072;50.238;19.228;2023-06-22T04:30:05;98779.98;;;20.08;80.14
77118;BME280;66072;50.238;19.228;2023-06-22T04:32:53;98778.43;;;20.14;79.91
77118;BME280;66072;50.238;19.228;2023-06-22T04:35:20;98782.67;;;20.24;79.62
77118;BME280;66072;50.238;19.228;2023-06-22T04:37:48;98778.62;;;20.33;79.48
77118;BME280;66072;50.238;19.228;2023-06-22T04:40:16;98778.09;;;20.44;79.28
77118;BME280;66072;50.238;19.228;2023-06-22T04:42:43;98779.21;;;20.54;78.94
77118;BME280;66072;50.238;19.228;2023-06-22T04:45:11;98778.30;;;20.61;78.82
77118;BME280;66072;50.238;19.228;2023-06-22T04:47:39;98773.23;;;20.63;78.71
77118;BME280;66072;50.238;19.228;2023-06-22T04:50:06;98777.97;;;20.63;78.57
77118;BME280;66072;50.238;19.228;2023-06-22T04:52:37;98780.06;;;20.67;78.61
77118;BME280;66072;50.238;19.228;2023-06-22T04:55:06;98781.97;;;20.69;78.64
77118;BME280;66072;50.238;19.228;2023-06-22T04:57:34;98782.84;;;20.73;78.75
77118;BME280;66072;50.238;19.228;2023-06-22T05:00:02;98784.85;;;20.82;78.74
77118;BME280;66072;50.238;19.228;2023-06-22T05:02:30;98790.24;;;20.95;78.51
77118;BME280;66072;50.238;19.228;2023-06-22T05:04:58;98792.03;;;21.07;78.12
77118;BME280;66072;50.238;19.228;2023-06-22T05:07:26;98793.56;;;21.15;77.93
77118;BME280;66072;50.238;19.228;2023-06-22T05:09:53;98791.02;;;21.23;77.82
77118;BME280;66072;50.238;19.228;2023-06-22T05:12:21;98792.22;;;21.33;77.66
77118;BME280;66072;50.238;19.228;2023-06-22T05:14:49;98794.30;;;21.46;77.62
77118;BME280;66072;50.238;19.228;2023-06-22T05:17:16;98802.16;;;21.61;77.51
77118;BME280;66072;50.238;19.228;2023-06-22T05:19:45;98805.44;;;21.75;77.30
77118;BME280;66072;50.238;19.228;2023-06-22T05:22:13;98807.36;;;21.80;76.75
77118;BME280;66072;50.238;19.228;2023-06-22T05:24:41;98810.42;;;21.88;76.91
77118;BME280;66072;50.238;19.228;2023-06-22T05:27:10;98818.64;;;21.98;76.88
77118;BME280;66072;50.238;19.228;2023-06-22T05:29:39;98819.35;;;22.06;76.41
77118;BME280;66072;50.238;19.228;2023-06-22T05:32:06;98826.67;;;22.12;76.09
77118;BME280;66072;50.238;19.228;2023-06-22T05:34:34;98823.60;;;22.19;75.98
77118;BME280;66072;50.238;19.228;2023-06-22T05:37:02;98826.56;;;22.23;75.69
77118;BME280;66072;50.238;19.228;2023-06-22T05:39:30;98824.05;;;22.32;75.63
77118;BME280;66072;50.238;19.228;2023-06-22T05:41:58;98822.23;;;22.44;75.41
77118;BME280;66072;50.238;19.228;2023-06-22T05:44:26;98821.36;;;22.52;75.33
77118;BME280;66072;50.238;19.228;2023-06-22T05:46:54;98817.97;;;22.64;74.98
77118;BME280;66072;50.238;19.228;2023-06-22T05:49:21;98820.89;;;22.80;74.59
77118;BME280;66072;50.238;19.228;2023-06-22T05:51:49;98826.08;;;22.96;74.14
77118;BME280;66072;50.238;19.228;2023-06-22T05:54:17;98822.29;;;23.07;73.55
77118;BME280;66072;50.238;19.228;2023-06-22T05:56:45;98822.79;;;23.15;73.50
77118;BME280;66072;50.238;19.228;2023-06-22T05:59:15;98821.66;;;23.32;73.27
77118;BME280;66072;50.238;19.228;2023-06-22T06:01:43;98822.57;;;23.54;72.93
77118;BME280;66072;50.238;19.228;2023-06-22T06:04:11;98823.24;;;23.79;72.46
77118;BME280;66072;50.238;19.228;2023-06-22T06:06:38;98824.53;;;23.96;71.27
77118;BME280;66072;50.238;19.228;2023-06-22T06:09:06;98825.38;;;24.08;70.70
77118;BME280;66072;50.238;19.228;2023-06-22T06:11:34;98831.89;;;24.23;70.50
77118;BME280;66072;50.238;19.228;2023-06-22T06:14:01;98831.91;;;24.43;69.92
77118;BME280;66072;50.238;19.228;2023-06-22T06:16:29;98835.26;;;24.61;69.57
77118;BME280;66072;50.238;19.228;2023-06-22T06:18:57;98842.52;;;24.76;68.25
77118;BME280;66072;50.238;19.228;2023-06-22T06:21:24;98841.88;;;24.82;68.24
77118;BME280;66072;50.238;19.228;2023-06-22T06:23:52;98843.20;;;24.97;67.86
77118;BME280;66072;50.238;19.228;2023-06-22T06:26:19;98842.30;;;25.15;67.24
77118;BME280;66072;50.238;19.228;2023-06-22T06:28:47;98840.79;;;25.36;66.76
77118;BME280;66072;50.238;19.228;2023-06-22T06:31:15;98836.38;;;25.61;66.36
77118;BME280;66072;50.238;19.228;2023-06-22T06:33:43;98840.31;;;25.87;65.66
77118;BME280;66072;50.238;19.228;2023-06-22T06:36:10;98842.13;;;26.17;64.71
77118;BME280;66072;50.238;19.228;2023-06-22T06:38:38;98847.93;;;26.50;63.82
77118;BME280;66072;50.238;19.228;2023-06-22T06:41:06;98849.30;;;26.78;62.34
77118;BME280;66072;50.238;19.228;2023-06-22T06:43:34;98849.02;;;26.79;61.46
77118;BME280;66072;50.238;19.228;2023-06-22T06:46:02;98845.11;;;26.86;62.06
77118;BME280;66072;50.238;19.228;2023-06-22T06:48:30;98845.86;;;27.05;61.47
77118;BME280;66072;50.238;19.228;2023-06-22T06:50:58;98843.98;;;27.22;60.84
77118;BME280;66072;50.238;19.228;2023-06-22T06:53:26;98848.05;;;27.32;60.34
77118;BME280;66072;50.238;19.228;2023-06-22T06:55:54;98843.59;;;27.31;60.25
77118;BME280;66072;50.238;19.228;2023-06-22T06:58:22;98843.94;;;27.28;59.78
77118;BME280;66072;50.238;19.228;2023-06-22T07:00:50;98840.95;;;27.23;59.58
77118;BME280;66072;50.238;19.228;2023-06-22T07:03:18;98837.88;;;27.14;59.61
77118;BME280;66072;50.238;19.228;2023-06-22T07:05:46;98830.48;;;27.06;59.74
77118;BME280;66072;50.238;19.228;2023-06-22T07:08:14;98827.52;;;27.01;59.80
77118;BME280;66072;50.238;19.228;2023-06-22T07:10:42;98826.41;;;27.03;59.49
77118;BME280;66072;50.238;19.228;2023-06-22T07:13:10;98821.64;;;26.95;59.54
77118;BME280;66072;50.238;19.228;2023-06-22T07:15:38;98827.50;;;26.87;59.68
77118;BME280;66072;50.238;19.228;2023-06-22T07:18:06;98827.18;;;26.88;59.56
77118;BME280;66072;50.238;19.228;2023-06-22T07:20:33;98833.98;;;26.87;59.13
77118;BME280;66072;50.238;19.228;2023-06-22T07:23:01;98837.27;;;26.92;58.63
77118;BME280;66072;50.238;19.228;2023-06-22T07:25:29;98830.27;;;27.00;58.09
77118;BME280;66072;50.238;19.228;2023-06-22T07:28:01;98836.69;;;27.15;57.54
77118;BME280;66072;50.238;19.228;2023-06-22T07:30:31;98835.08;;;27.36;57.06
77118;BME280;66072;50.238;19.228;2023-06-22T07:33:01;98832.41;;;27.59;56.29
77118;BME280;66072;50.238;19.228;2023-06-22T07:35:30;98840.77;;;27.78;55.66
77118;BME280;66072;50.238;19.228;2023-06-22T07:37:58;98838.90;;;27.89;55.27
77118;BME280;66072;50.238;19.228;2023-06-22T07:40:31;98841.16;;;28.06;54.52
77118;BME280;66072;50.238;19.228;2023-06-22T07:42:59;98845.02;;;28.27;53.82
77118;BME280;66072;50.238;19.228;2023-06-22T07:45:27;98852.02;;;28.50;53.48
77118;BME280;66072;50.238;19.228;2023-06-22T07:47:55;98855.54;;;28.69;52.84
77118;BME280;66072;50.238;19.228;2023-06-22T07:50:23;98854.53;;;28.78;52.31
77118;BME280;66072;50.238;19.228;2023-06-22T07:52:51;98855.55;;;28.85;51.84
77118;BME280;66072;50.238;19.228;2023-06-22T07:55:18;98858.60;;;28.95;51.97
77118;BME280;66072;50.238;19.228;2023-06-22T07:57:48;98857.96;;;29.11;51.01
77118;BME280;66072;50.238;19.228;2023-06-22T08:00:17;98855.67;;;29.20;50.56
77118;BME280;66072;50.238;19.228;2023-06-22T08:02:46;98855.87;;;29.35;50.16
77118;BME280;66072;50.238;19.228;2023-06-22T08:05:15;98858.92;;;29.43;50.06
77118;BME280;66072;50.238;19.228;2023-06-22T08:07:46;98861.44;;;29.46;49.82
77118;BME280;66072;50.238;19.228;2023-06-22T08:10:16;98863.82;;;29.47;49.78
77118;BME280;66072;50.238;19.228;2023-06-22T08:12:44;98865.80;;;29.49;49.20
77118;BME280;66072;50.238;19.228;2023-06-22T08:15:12;98867.17;;;29.53;48.61
77118;BME280;66072;50.238;19.228;2023-06-22T08:17:40;98867.13;;;29.57;48.53
77118;BME280;66072;50.238;19.228;2023-06-22T08:20:09;98866.36;;;29.64;48.61
77118;BME280;66072;50.238;19.228;2023-06-22T08:22:38;98869.35;;;29.60;48.40
77118;BME280;66072;50.238;19.228;2023-06-22T08:25:07;98875.58;;;29.58;47.71
77118;BME280;66072;50.238;19.228;2023-06-22T08:27:36;98876.38;;;29.57;47.85
77118;BME280;66072;50.238;19.228;2023-06-22T08:30:05;98878.73;;;29.64;47.72
77118;BME280;66072;50.238;19.228;2023-06-22T08:32:33;98876.41;;;29.80;47.71
77118;BME280;66072;50.238;19.228;2023-06-22T08:35:02;98870.90;;;29.92;46.56
77118;BME280;66072;50.238;19.228;2023-06-22T08:37:30;98875.85;;;29.82;46.83
77118;BME280;66072;50.238;19.228;2023-06-22T08:40:03;98881.00;;;29.86;46.69
77118;BME280;66072;50.238;19.228;2023-06-22T08:42:32;98879.16;;;29.91;46.88
77118;BME280;66072;50.238;19.228;2023-06-22T08:45:00;98879.81;;;29.91;46.59
77118;BME280;66072;50.238;19.228;2023-06-22T08:47:28;98883.23;;;29.82;46.19
77118;BME280;66072;50.238;19.228;2023-06-22T08:49:56;98885.12;;;29.62;45.18
77118;BME280;66072;50.238;19.228;2023-06-22T08:52:24;98881.56;;;29.31;44.62
77118;BME280;66072;50.238;19.228;2023-06-22T08:54:52;98888.59;;;29.00;45.76
77118;BME280;66072;50.238;19.228;2023-06-22T08:57:21;98886.55;;;28.91;44.79
77118;BME280;66072;50.238;19.228;2023-06-22T08:59:49;98890.17;;;28.86;45.53
77118;BME280;66072;50.238;19.228;2023-06-22T09:02:17;98889.83;;;28.87;44.48
77118;BME280;66072;50.238;19.228;2023-06-22T09:04:48;98891.09;;;28.90;44.86
77118;BME280;66072;50.238;19.228;2023-06-22T09:07:16;98890.92;;;29.13;44.88
77118;BME280;66072;50.238;19.228;2023-06-22T09:09:44;98890.90;;;29.46;44.68
77118;BME280;66072;50.238;19.228;2023-06-22T09:12:12;98892.54;;;29.84;43.42
77118;BME280;66072;50.238;19.228;2023-06-22T09:14:40;98882.27;;;29.99;41.93
77118;BME280;66072;50.238;19.228;2023-06-22T09:17:08;98887.25;;;29.81;42.17
77118;BME280;66072;50.238;19.228;2023-06-22T09:19:36;98889.90;;;29.81;43.44
77118;BME280;66072;50.238;19.228;2023-06-22T09:22:04;98890.62;;;29.84;43.62
77118;BME280;66072;50.238;19.228;2023-06-22T09:24:33;98889.41;;;29.88;43.67
77118;BME280;66072;50.238;19.228;2023-06-22T09:27:01;98881.52;;;29.99;43.12
77118;BME280;66072;50.238;19.228;2023-06-22T09:29:29;98877.90;;;30.22;43.02
77118;BME280;66072;50.238;19.228;2023-06-22T09:31:57;98879.73;;;30.46;42.23
77118;BME280;66072;50.238;19.228;2023-06-22T09:34:28;98875.04;;;30.58;41.81
77118;BME280;66072;50.238;19.228;2023-06-22T09:36:56;98871.92;;;30.53;40.99
77118;BME280;66072;50.238;19.228;2023-06-22T09:39:24;98863.55;;;30.35;40.59
77118;BME280;66072;50.238;19.228;2023-06-22T09:41:52;98861.65;;;30.22;40.45
77118;BME280;66072;50.238;19.228;2023-06-22T09:44:20;98860.54;;;30.24;40.95
77118;BME280;66072;50.238;19.228;2023-06-22T09:46:48;98857.39;;;30.31;39.57
77118;BME280;66072;50.238;19.228;2023-06-22T09:49:16;98858.57;;;30.38;39.97
77118;BME280;66072;50.238;19.228;2023-06-22T09:51:44;98857.81;;;30.62;39.24
77118;BME280;66072;50.238;19.228;2023-06-22T09:54:12;98859.20;;;30.58;38.33
77118;BME280;66072;50.238;19.228;2023-06-22T09:56:39;98857.67;;;30.67;39.21
77118;BME280;66072;50.238;19.228;2023-06-22T09:59:07;98855.85;;;31.00;39.17
77118;BME280;66072;50.238;19.228;2023-06-22T10:01:45;98852.46;;;31.19;36.52
77118;BME280;66072;50.238;19.228;2023-06-22T10:04:13;98841.38;;;31.53;35.92
77118;BME280;66072;50.238;19.228;2023-06-22T10:06:41;98844.83;;;32.33;35.54
77118;BME280;66072;50.238;19.228;2023-06-22T10:09:08;98852.04;;;33.56;34.83
77118;BME280;66072;50.238;19.228;2023-06-22T10:11:36;98852.09;;;34.87;32.55
77118;BME280;66072;50.238;19.228;2023-06-22T10:14:04;98844.92;;;36.02;31.08
77118;BME280;66072;50.238;19.228;2023-06-22T10:16:33;98843.10;;;37.15;29.39
77118;BME280;66072;50.238;19.228;2023-06-22T10:19:02;98850.56;;;37.96;26.61
77118;BME280;66072;50.238;19.228;2023-06-22T10:21:30;98843.05;;;38.43;25.47
77118;BME280;66072;50.238;19.228;2023-06-22T10:23:59;98843.22;;;38.85;24.51
77118;BME280;66072;50.238;19.228;2023-06-22T10:26:27;98840.31;;;39.02;24.70
77118;BME280;66072;50.238;19.228;2023-06-22T10:28:56;98834.83;;;39.53;24.39
77118;BME280;66072;50.238;19.228;2023-06-22T10:31:44;98830.05;;;39.94;22.90
77118;BME280;66072;50.238;19.228;2023-06-22T10:34:12;98832.69;;;40.31;23.32
77118;BME280;66072;50.238;19.228;2023-06-22T10:36:41;98830.71;;;40.78;22.73
77118;BME280;66072;50.238;19.228;2023-06-22T10:39:12;98842.50;;;41.46;22.84
77118;BME280;66072;50.238;19.228;2023-06-22T10:41:40;98838.27;;;42.17;21.65
77118;BME280;66072;50.238;19.228;2023-06-22T10:44:08;98834.89;;;42.36;19.84
77118;BME280;66072;50.238;19.228;2023-06-22T10:46:35;98829.80;;;42.28;19.81
77118;BME280;66072;50.238;19.228;2023-06-22T10:49:03;98826.34;;;42.75;20.62
77118;BME280;66072;50.238;19.228;2023-06-22T10:51:31;98823.09;;;43.60;20.04
77118;BME280;66072;50.238;19.228;2023-06-22T10:53:58;98821.75;;;44.39;19.01
77118;BME280;66072;50.238;19.228;2023-06-22T10:56:26;98816.88;;;44.70;17.85
77118;BME280;66072;50.238;19.228;2023-06-22T10:58:54;98819.80;;;44.46;17.65
77118;BME280;66072;50.238;19.228;2023-06-22T11:01:21;98815.96;;;44.39;18.59
77118;BME280;66072;50.238;19.228;2023-06-22T11:04:03;98815.63;;;45.22;18.58
77118;BME280;66072;50.238;19.228;2023-06-22T11:06:31;98814.80;;;46.06;17.35
77118;BME280;66072;50.238;19.228;2023-06-22T11:08:59;98814.28;;;46.29;16.32
77118;BME280;66072;50.238;19.228;2023-06-22T11:11:30;98814.00;;;45.82;15.90
77118;BME280;66072;50.238;19.228;2023-06-22T11:13:57;98809.79;;;45.12;16.47
77118;BME280;66072;50.238;19.228;2023-06-22T11:16:25;98806.37;;;44.87;16.72
77118;BME280;66072;50.238;19.228;2023-06-22T11:18:53;98803.31;;;44.90;16.16
77118;BME280;66072;50.238;19.228;2023-06-22T11:21:20;98803.91;;;44.94;16.53
77118;BME280;66072;50.238;19.228;2023-06-22T11:23:48;98803.91;;;45.29;16.05
77118;BME280;66072;50.238;19.228;2023-06-22T11:26:16;98804.39;;;45.67;16.32
77118;BME280;66072;50.238;19.228;2023-06-22T11:28:44;98798.67;;;45.99;15.27
77118;BME280;66072;50.238;19.228;2023-06-22T11:31:11;98799.80;;;45.74;15.10
77118;BME280;66072;50.238;19.228;2023-06-22T11:33:42;98801.67;;;45.63;15.57
77118;BME280;66072;50.238;19.228;2023-06-22T11:36:09;98804.39;;;46.02;15.53
77118;BME280;66072;50.238;19.228;2023-06-22T11:38:40;98797.66;;;46.81;15.21
77118;BME280;66072;50.238;19.228;2023-06-22T11:41:08;98796.93;;;47.64;14.74
77118;BME280;66072;50.238;19.228;2023-06-22T11:43:36;98795.98;;;48.47;13.99
77118;BME280;66072;50.238;19.228;2023-06-22T11:46:04;98789.64;;;48.45;14.38
77118;BME280;66072;50.238;19.228;2023-06-22T11:48:32;98787.36;;;48.00;15.06
77118;BME280;66072;50.238;19.228;2023-06-22T11:51:01;98779.23;;;48.85;14.18
77118;BME280;66072;50.238;19.228;2023-06-22T11:53:29;98785.73;;;49.72;13.70
77118;BME280;66072;50.238;19.228;2023-06-22T11:55:58;98781.02;;;50.54;13.20
77118;BME280;66072;50.238;19.228;2023-06-22T11:58:25;98779.05;;;51.16;12.71
77118;BME280;66072;50.238;19.228;2023-06-22T12:00:53;98778.33;;;51.25;12.73
77118;BME280;66072;50.238;19.228;2023-06-22T12:03:22;98773.23;;;51.47;12.62
77118;BME280;66072;50.238;19.228;2023-06-22T12:05:50;98770.73;;;51.95;12.26
77118;BME280;66072;50.238;19.228;2023-06-22T12:08:18;98770.98;;;51.33;11.88
77118;BME280;66072;50.238;19.228;2023-06-22T12:10:46;98766.38;;;51.33;11.77
77118;BME280;66072;50.238;19.228;2023-06-22T12:13:13;98764.05;;;51.91;12.13
77118;BME280;66072;50.238;19.228;2023-06-22T12:15:41;98756.61;;;52.85;11.69
77118;BME280;66072;50.238;19.228;2023-06-22T12:18:09;98754.06;;;53.45;11.28
77118;BME280;66072;50.238;19.228;2023-06-22T12:20:36;98752.41;;;53.76;10.63
77118;BME280;66072;50.238;19.228;2023-06-22T12:23:04;98749.39;;;53.83;10.27
77118;BME280;66072;50.238;19.228;2023-06-22T12:25:32;98742.70;;;53.46;10.14
77118;BME280;66072;50.238;19.228;2023-06-22T12:27:59;98741.48;;;53.08;9.94
77118;BME280;66072;50.238;19.228;2023-06-22T12:30:27;98741.30;;;52.29;10.43
77118;BME280;66072;50.238;19.228;2023-06-22T12:32:55;98739.77;;;52.06;10.67
77118;BME280;66072;50.238;19.228;2023-06-22T12:35:23;98736.33;;;52.26;10.78
77118;BME280;66072;50.238;19.228;2023-06-22T12:37:51;98735.75;;;52.90;11.04
77118;BME280;66072;50.238;19.228;2023-06-22T12:40:19;98732.77;;;53.45;10.41
77118;BME280;66072;50.238;19.228;2023-06-22T12:42:46;98725.48;;;52.98;10.21
77118;BME280;66072;50.238;19.228;2023-06-22T12:45:14;98723.61;;;52.56;10.61
77118;BME280;66072;50.238;19.228;2023-06-22T12:47:42;98727.83;;;53.36;10.45
77118;BME280;66072;50.238;19.228;2023-06-22T12:50:09;98715.42;;;53.97;9.83
77118;BME280;66072;50.238;19.228;2023-06-22T12:52:39;98714.05;;;54.48;10.62
77118;BME280;66072;50.238;19.228;2023-06-22T12:55:07;98708.26;;;55.01;9.59
77118;BME280;66072;50.238;19.228;2023-06-22T12:57:34;98706.96;;;55.02;9.34
77118;BME280;66072;50.238;19.228;2023-06-22T13:00:02;98708.48;;;54.79;8.93
77118;BME280;66072;50.238;19.228;2023-06-22T13:02:30;98701.67;;;53.98;8.82